sensor_id;sensor_type;location;lat;lon;timestamp;P1;durP1;ratioP1;P2;durP2;ratioP2
3771;SDS011;1901;48.172;12.824;2022-08-21T00:01:14;9.73;;;7.03;;
3771;SDS011;1901;48.172;12.824;2022-08-21T00:03:41;11.50;;;5.77;;
3771;SDS011;1901;48.172;12.824;2022-08-21T00:06:09;5.20;;;4.70;;
3771;SDS011;1901;48.172;12.824;2022-08-21T00:08:36;11.03;;;5.60;;
3771;SDS011;1901;48.172;12.824;2022-08-21T00:11:05;7.00;;;4.40;;
3771;SDS011;1901;48.172;12.824;2022-08-21T00:13:33;6.77;;;4.63;;
3771;SDS011;1901;48.172;12.824;2022-08-21T00:16:00;8.30;;;4.87;;
3771;SDS011;1901;48.172;12.824;2022-08-21T00:18:28;4.57;;;4.17;;
3771;SDS011;1901;48.172;12.824;2022-08-21T00:20:55;7.80;;;5.70;;
3771;SDS011;1901;48.172;12.824;2022-08-21T00:23:22;8.20;;;5.13;;
3771;SDS011;1901;48.172;12.824;2022-08-21T00:25:49;5.00;;;4.20;;
3771;SDS011;1901;48.172;12.824;2022-08-21T00:28:18;6.20;;;4.90;;
3771;SDS011;1901;48.172;12.824;2022-08-21T00:30:45;10.63;;;5.07;;
3771;SDS011;1901;48.172;12.824;2022-08-21T00:33:12;6.43;;;4.77;;
3771;SDS011;1901;48.172;12.824;2022-08-21T00:35:41;6.33;;;4.70;;
3771;SDS011;1901;48.172;12.824;2022-08-21T00:38:09;6.60;;;4.50;;
3771;SDS011;1901;48.172;12.824;2022-08-21T00:40:38;6.90;;;5.10;;
3771;SDS011;1901;48.172;12.824;2022-08-21T00:43:06;5.37;;;4.87;;
3771;SDS011;1901;48.172;12.824;2022-08-21T00:45:35;5.63;;;5.10;;
3771;SDS011;1901;48.172;12.824;2022-08-21T00:48:02;4.97;;;4.47;;
3771;SDS011;1901;48.172;12.824;2022-08-21T00:50:31;6.30;;;4.87;;
3771;SDS011;1901;48.172;12.824;2022-08-21T00:52:58;6.40;;;4.70;;
3771;SDS011;1901;48.172;12.824;2022-08-21T00:55:27;8.03;;;4.50;;
3771;SDS011;1901;48.172;12.824;2022-08-21T00:57:55;6.70;;;5.37;;
3771;SDS011;1901;48.172;12.824;2022-08-21T01:00:25;10.43;;;5.83;;
3771;SDS011;1901;48.172;12.824;2022-08-21T01:02:55;7.57;;;4.70;;
3771;SDS011;1901;48.172;12.824;2022-08-21T01:05:22;5.73;;;4.80;;
3771;SDS011;1901;48.172;12.824;2022-08-21T01:07:49;7.60;;;5.97;;
3771;SDS011;1901;48.172;12.824;2022-08-21T01:10:17;5.63;;;4.57;;
3771;SDS011;1901;48.172;12.824;2022-08-21T01:12:44;7.83;;;5.60;;
3771;SDS011;1901;48.172;12.824;2022-08-21T01:15:11;6.47;;;5.83;;
3771;SDS011;1901;48.172;12.824;2022-08-21T01:17:41;8.03;;;5.83;;
3771;SDS011;1901;48.172;12.824;2022-08-21T01:20:10;9.00;;;5.00;;
3771;SDS011;1901;48.172;12.824;2022-08-21T01:22:39;9.00;;;5.83;;
3771;SDS011;1901;48.172;12.824;2022-08-21T01:25:08;8.00;;;5.30;;
3771;SDS011;1901;48.172;12.824;2022-08-21T01:27:36;6.97;;;5.83;;
3771;SDS011;1901;48.172;12.824;2022-08-21T01:30:04;8.27;;;5.83;;
3771;SDS011;1901;48.172;12.824;2022-08-21T01:32:34;5.37;;;4.87;;
3771;SDS011;1901;48.172;12.824;2022-08-21T01:35:02;9.10;;;5.47;;
3771;SDS011;1901;48.172;12.824;2022-08-21T01:37:29;8.83;;;5.77;;
3771;SDS011;1901;48.172;12.824;2022-08-21T01:39:58;7.10;;;4.80;;
3771;SDS011;1901;48.172;12.824;2022-08-21T01:42:25;5.53;;;4.97;;
3771;SDS011;1901;48.172;12.824;2022-08-21T01:44:52;8.37;;;5.50;;
3771;SDS011;1901;48.172;12.824;2022-08-21T01:47:19;8.03;;;5.90;;
3771;SDS011;1901;48.172;12.824;2022-08-21T01:49:47;7.30;;;5.60;;
3771;SDS011;1901;48.172;12.824;2022-08-21T01:52:14;10.47;;;5.37;;
3771;SDS011;1901;48.172;12.824;2022-08-21T01:54:41;8.20;;;4.73;;
3771;SDS011;1901;48.172;12.824;2022-08-21T01:57:09;8.80;;;5.10;;
3771;SDS011;1901;48.172;12.824;2022-08-21T01:59:37;6.90;;;5.67;;
3771;SDS011;1901;48.172;12.824;2022-08-21T02:02:04;6.47;;;5.00;;
3771;SDS011;1901;48.172;12.824;2022-08-21T02:04:32;10.10;;;5.10;;
3771;SDS011;1901;48.172;12.824;2022-08-21T02:06:59;14.13;;;5.77;;
3771;SDS011;1901;48.172;12.824;2022-08-21T02:09:26;5.63;;;4.57;;
3771;SDS011;1901;48.172;12.824;2022-08-21T02:11:54;11.50;;;5.30;;
3771;SDS011;1901;48.172;12.824;2022-08-21T02:14:23;10.77;;;4.90;;
3771;SDS011;1901;48.172;12.824;2022-08-21T02:16:50;8.73;;;5.10;;
3771;SDS011;1901;48.172;12.824;2022-08-21T02:19:18;8.33;;;5.73;;
3771;SDS011;1901;48.172;12.824;2022-08-21T02:21:45;5.43;;;4.93;;
3771;SDS011;1901;48.172;12.824;2022-08-21T02:24:12;6.83;;;4.40;;
3771;SDS011;1901;48.172;12.824;2022-08-21T02:26:39;5.63;;;4.90;;
3771;SDS011;1901;48.172;12.824;2022-08-21T02:29:07;7.20;;;5.20;;
3771;SDS011;1901;48.172;12.824;2022-08-21T02:31:35;6.90;;;5.00;;
3771;SDS011;1901;48.172;12.824;2022-08-21T02:34:03;7.97;;;5.63;;
3771;SDS011;1901;48.172;12.824;2022-08-21T02:36:30;6.40;;;5.43;;
3771;SDS011;1901;48.172;12.824;2022-08-21T02:38:58;7.30;;;4.50;;
3771;SDS011;1901;48.172;12.824;2022-08-21T02:41:25;6.07;;;5.37;;
3771;SDS011;1901;48.172;12.824;2022-08-21T02:43:52;10.50;;;5.60;;
3771;SDS011;1901;48.172;12.824;2022-08-21T02:46:19;5.93;;;5.00;;
3771;SDS011;1901;48.172;12.824;2022-08-21T02:48:48;10.00;;;4.70;;
3771;SDS011;1901;48.172;12.824;2022-08-21T02:51:17;8.93;;;4.83;;
3771;SDS011;1901;48.172;12.824;2022-08-21T02:53:45;5.97;;;5.00;;
3771;SDS011;1901;48.172;12.824;2022-08-21T02:56:13;4.80;;;4.27;;
3771;SDS011;1901;48.172;12.824;2022-08-21T02:58:42;4.87;;;4.37;;
3771;SDS011;1901;48.172;12.824;2022-08-21T03:01:10;10.10;;;4.73;;
3771;SDS011;1901;48.172;12.824;2022-08-21T03:03:37;4.83;;;4.20;;
3771;SDS011;1901;48.172;12.824;2022-08-21T03:06:07;4.50;;;3.83;;
3771;SDS011;1901;48.172;12.824;2022-08-21T03:08:35;9.30;;;4.47;;
3771;SDS011;1901;48.172;12.824;2022-08-21T03:11:02;5.40;;;4.20;;
3771;SDS011;1901;48.172;12.824;2022-08-21T03:13:30;5.10;;;4.40;;
3771;SDS011;1901;48.172;12.824;2022-08-21T03:15:57;8.50;;;4.03;;
3771;SDS011;1901;48.172;12.824;2022-08-21T03:18:24;5.10;;;4.43;;
3771;SDS011;1901;48.172;12.824;2022-08-21T03:20:51;7.50;;;4.20;;
3771;SDS011;1901;48.172;12.824;2022-08-21T03:23:20;4.30;;;3.90;;
3771;SDS011;1901;48.172;12.824;2022-08-21T03:25:47;5.10;;;4.00;;
3771;SDS011;1901;48.172;12.824;2022-08-21T03:28:17;6.37;;;4.07;;
3771;SDS011;1901;48.172;12.824;2022-08-21T03:30:45;4.83;;;4.17;;
3771;SDS011;1901;48.172;12.824;2022-08-21T03:33:13;5.00;;;4.50;;
3771;SDS011;1901;48.172;12.824;2022-08-21T03:35:40;6.67;;;5.37;;
3771;SDS011;1901;48.172;12.824;2022-08-21T03:38:08;8.40;;;5.00;;
3771;SDS011;1901;48.172;12.824;2022-08-21T03:40:39;4.40;;;3.80;;
3771;SDS011;1901;48.172;12.824;2022-08-21T03:43:06;7.57;;;4.30;;
3771;SDS011;1901;48.172;12.824;2022-08-21T03:45:34;7.17;;;4.80;;
3771;SDS011;1901;48.172;12.824;2022-08-21T03:48:02;7.93;;;5.63;;
3771;SDS011;1901;48.172;12.824;2022-08-21T03:50:30;6.00;;;5.40;;
3771;SDS011;1901;48.172;12.824;2022-08-21T03:52:58;5.57;;;4.70;;
3771;SDS011;1901;48.172;12.824;2022-08-21T03:55:25;10.27;;;6.03;;
3771;SDS011;1901;48.172;12.824;2022-08-21T03:57:54;9.27;;;5.23;;
3771;SDS011;1901;48.172;12.824;2022-08-21T04:00:21;5.57;;;4.80;;
3771;SDS011;1901;48.172;12.824;2022-08-21T04:02:49;6.77;;;5.70;;
3771;SDS011;1901;48.172;12.824;2022-08-21T04:05:16;5.13;;;4.60;;
3771;SDS011;1901;48.172;12.824;2022-08-21T04:07:52;5.13;;;4.50;;
3771;SDS011;1901;48.172;12.824;2022-08-21T04:10:19;6.70;;;5.23;;
3771;SDS011;1901;48.172;12.824;2022-08-21T04:12:46;9.60;;;4.87;;
3771;SDS011;1901;48.172;12.824;2022-08-21T04:15:15;9.20;;;7.43;;
3771;SDS011;1901;48.172;12.824;2022-08-21T04:17:42;9.13;;;5.63;;
3771;SDS011;1901;48.172;12.824;2022-08-21T04:20:09;9.70;;;5.83;;
3771;SDS011;1901;48.172;12.824;2022-08-21T04:22:37;5.90;;;5.27;;
3771;SDS011;1901;48.172;12.824;2022-08-21T04:25:05;7.07;;;5.23;;
3771;SDS011;1901;48.172;12.824;2022-08-21T04:27:32;6.23;;;5.63;;
3771;SDS011;1901;48.172;12.824;2022-08-21T04:29:59;5.83;;;5.33;;
3771;SDS011;1901;48.172;12.824;2022-08-21T04:32:28;6.30;;;5.20;;
3771;SDS011;1901;48.172;12.824;2022-08-21T04:34:58;5.00;;;4.50;;
3771;SDS011;1901;48.172;12.824;2022-08-21T04:37:26;6.83;;;5.27;;
3771;SDS011;1901;48.172;12.824;2022-08-21T04:39:53;7.13;;;6.30;;
3771;SDS011;1901;48.172;12.824;2022-08-21T04:42:22;7.70;;;6.00;;
3771;SDS011;1901;48.172;12.824;2022-08-21T04:44:50;7.70;;;6.73;;
3771;SDS011;1901;48.172;12.824;2022-08-21T04:47:17;9.30;;;6.20;;
3771;SDS011;1901;48.172;12.824;2022-08-21T04:49:46;7.20;;;6.47;;
3771;SDS011;1901;48.172;12.824;2022-08-21T04:52:14;9.70;;;6.87;;
3771;SDS011;1901;48.172;12.824;2022-08-21T04:54:41;9.07;;;6.33;;
3771;SDS011;1901;48.172;12.824;2022-08-21T04:57:10;6.57;;;5.90;;
3771;SDS011;1901;48.172;12.824;2022-08-21T04:59:38;6.70;;;5.63;;
3771;SDS011;1901;48.172;12.824;2022-08-21T05:02:05;7.53;;;6.07;;
3771;SDS011;1901;48.172;12.824;2022-08-21T05:04:34;6.67;;;5.93;;
3771;SDS011;1901;48.172;12.824;2022-08-21T05:07:05;6.57;;;5.90;;
3771;SDS011;1901;48.172;12.824;2022-08-21T05:09:34;14.97;;;6.77;;
3771;SDS011;1901;48.172;12.824;2022-08-21T05:12:01;7.97;;;5.57;;
3771;SDS011;1901;48.172;12.824;2022-08-21T05:14:29;10.20;;;5.80;;
3771;SDS011;1901;48.172;12.824;2022-08-21T05:16:56;5.90;;;5.10;;
3771;SDS011;1901;48.172;12.824;2022-08-21T05:19:23;8.00;;;4.40;;
3771;SDS011;1901;48.172;12.824;2022-08-21T05:21:50;12.87;;;5.50;;
3771;SDS011;1901;48.172;12.824;2022-08-21T05:24:19;6.10;;;3.83;;
3771;SDS011;1901;48.172;12.824;2022-08-21T05:26:46;8.90;;;4.33;;
3771;SDS011;1901;48.172;12.824;2022-08-21T05:29:14;5.10;;;3.90;;
3771;SDS011;1901;48.172;12.824;2022-08-21T05:31:41;6.27;;;4.20;;
3771;SDS011;1901;48.172;12.824;2022-08-21T05:34:09;5.50;;;4.90;;
3771;SDS011;1901;48.172;12.824;2022-08-21T05:36:36;7.53;;;4.53;;
3771;SDS011;1901;48.172;12.824;2022-08-21T05:39:03;3.80;;;3.40;;
3771;SDS011;1901;48.172;12.824;2022-08-21T05:41:31;4.27;;;3.10;;
3771;SDS011;1901;48.172;12.824;2022-08-21T05:43:58;3.70;;;3.40;;
3771;SDS011;1901;48.172;12.824;2022-08-21T05:46:26;4.67;;;4.27;;
3771;SDS011;1901;48.172;12.824;2022-08-21T05:48:53;7.07;;;4.20;;
3771;SDS011;1901;48.172;12.824;2022-08-21T05:51:20;4.33;;;3.93;;
3771;SDS011;1901;48.172;12.824;2022-08-21T05:53:47;4.30;;;3.90;;
3771;SDS011;1901;48.172;12.824;2022-08-21T05:56:14;6.13;;;4.13;;
3771;SDS011;1901;48.172;12.824;2022-08-21T05:58:42;4.83;;;3.57;;
3771;SDS011;1901;48.172;12.824;2022-08-21T06:01:10;6.03;;;3.30;;
3771;SDS011;1901;48.172;12.824;2022-08-21T06:03:38;3.80;;;3.40;;
3771;SDS011;1901;48.172;12.824;2022-08-21T06:06:05;4.60;;;3.33;;
3771;SDS011;1901;48.172;12.824;2022-08-21T06:08:33;3.33;;;3.03;;
3771;SDS011;1901;48.172;12.824;2022-08-21T06:11:00;5.30;;;3.20;;
3771;SDS011;1901;48.172;12.824;2022-08-21T06:13:28;4.10;;;3.03;;
3771;SDS011;1901;48.172;12.824;2022-08-21T06:16:04;3.33;;;2.57;;
3771;SDS011;1901;48.172;12.824;2022-08-21T06:18:32;2.93;;;2.73;;
3771;SDS011;1901;48.172;12.824;2022-08-21T06:20:59;3.07;;;2.83;;
3771;SDS011;1901;48.172;12.824;2022-08-21T06:23:26;2.90;;;2.60;;
3771;SDS011;1901;48.172;12.824;2022-08-21T06:25:53;2.90;;;2.70;;
3771;SDS011;1901;48.172;12.824;2022-08-21T06:28:20;3.63;;;3.10;;
3771;SDS011;1901;48.172;12.824;2022-08-21T06:30:47;3.03;;;2.80;;
3771;SDS011;1901;48.172;12.824;2022-08-21T06:33:16;4.50;;;3.00;;
3771;SDS011;1901;48.172;12.824;2022-08-21T06:35:43;6.37;;;3.60;;
3771;SDS011;1901;48.172;12.824;2022-08-21T06:38:10;4.37;;;3.93;;
3771;SDS011;1901;48.172;12.824;2022-08-21T06:40:37;3.67;;;2.30;;
3771;SDS011;1901;48.172;12.824;2022-08-21T06:43:06;5.50;;;3.20;;
3771;SDS011;1901;48.172;12.824;2022-08-21T06:45:33;4.50;;;2.53;;
3771;SDS011;1901;48.172;12.824;2022-08-21T06:48:00;3.53;;;3.23;;
3771;SDS011;1901;48.172;12.824;2022-08-21T06:50:29;3.17;;;2.40;;
3771;SDS011;1901;48.172;12.824;2022-08-21T06:52:59;5.03;;;2.97;;
3771;SDS011;1901;48.172;12.824;2022-08-21T06:55:26;4.47;;;3.20;;
3771;SDS011;1901;48.172;12.824;2022-08-21T06:57:54;5.43;;;3.17;;
3771;SDS011;1901;48.172;12.824;2022-08-21T07:00:21;4.10;;;2.57;;
3771;SDS011;1901;48.172;12.824;2022-08-21T07:02:48;3.70;;;3.20;;
3771;SDS011;1901;48.172;12.824;2022-08-21T07:05:16;3.70;;;3.30;;
3771;SDS011;1901;48.172;12.824;2022-08-21T07:07:46;5.57;;;3.77;;
3771;SDS011;1901;48.172;12.824;2022-08-21T07:10:13;4.10;;;3.77;;
3771;SDS011;1901;48.172;12.824;2022-08-21T07:12:40;9.57;;;3.43;;
3771;SDS011;1901;48.172;12.824;2022-08-21T07:15:08;4.13;;;3.20;;
3771;SDS011;1901;48.172;12.824;2022-08-21T07:17:35;3.20;;;2.90;;
3771;SDS011;1901;48.172;12.824;2022-08-21T07:20:03;4.50;;;3.70;;
3771;SDS011;1901;48.172;12.824;2022-08-21T07:22:30;3.83;;;3.13;;
3771;SDS011;1901;48.172;12.824;2022-08-21T07:24:59;4.40;;;3.00;;
3771;SDS011;1901;48.172;12.824;2022-08-21T07:27:26;5.53;;;3.20;;
3771;SDS011;1901;48.172;12.824;2022-08-21T07:29:53;7.03;;;3.23;;
3771;SDS011;1901;48.172;12.824;2022-08-21T07:32:20;5.70;;;3.57;;
3771;SDS011;1901;48.172;12.824;2022-08-21T07:34:47;5.17;;;3.10;;
3771;SDS011;1901;48.172;12.824;2022-08-21T07:37:14;5.57;;;3.20;;
3771;SDS011;1901;48.172;12.824;2022-08-21T07:39:42;3.80;;;3.50;;
3771;SDS011;1901;48.172;12.824;2022-08-21T07:42:10;3.77;;;3.40;;
3771;SDS011;1901;48.172;12.824;2022-08-21T07:44:37;3.40;;;3.10;;
3771;SDS011;1901;48.172;12.824;2022-08-21T07:47:04;5.00;;;4.20;;
3771;SDS011;1901;48.172;12.824;2022-08-21T07:49:32;3.50;;;3.00;;
3771;SDS011;1901;48.172;12.824;2022-08-21T07:51:59;4.20;;;3.67;;
3771;SDS011;1901;48.172;12.824;2022-08-21T07:54:26;6.30;;;3.70;;
3771;SDS011;1901;48.172;12.824;2022-08-21T07:56:53;4.40;;;3.40;;
3771;SDS011;1901;48.172;12.824;2022-08-21T07:59:21;4.97;;;3.00;;
3771;SDS011;1901;48.172;12.824;2022-08-21T08:01:49;4.83;;;4.03;;
3771;SDS011;1901;48.172;12.824;2022-08-21T08:04:16;3.73;;;3.30;;
3771;SDS011;1901;48.172;12.824;2022-08-21T08:06:43;4.13;;;3.60;;
3771;SDS011;1901;48.172;12.824;2022-08-21T08:09:10;5.03;;;3.50;;
3771;SDS011;1901;48.172;12.824;2022-08-21T08:11:38;3.70;;;3.40;;
3771;SDS011;1901;48.172;12.824;2022-08-21T08:14:05;4.27;;;3.70;;
3771;SDS011;1901;48.172;12.824;2022-08-21T08:16:34;3.80;;;3.20;;
3771;SDS011;1901;48.172;12.824;2022-08-21T08:19:01;4.60;;;3.67;;
3771;SDS011;1901;48.172;12.824;2022-08-21T08:21:29;4.67;;;3.43;;
3771;SDS011;1901;48.172;12.824;2022-08-21T08:23:57;5.10;;;3.60;;
3771;SDS011;1901;48.172;12.824;2022-08-21T08:26:24;5.20;;;3.50;;
3771;SDS011;1901;48.172;12.824;2022-08-21T08:28:51;2.90;;;2.70;;
3771;SDS011;1901;48.172;12.824;2022-08-21T08:31:18;7.50;;;3.70;;
3771;SDS011;1901;48.172;12.824;2022-08-21T08:33:47;4.43;;;3.43;;
3771;SDS011;1901;48.172;12.824;2022-08-21T08:36:15;4.23;;;3.83;;
3771;SDS011;1901;48.172;12.824;2022-08-21T08:38:43;2.70;;;2.50;;
3771;SDS011;1901;48.172;12.824;2022-08-21T08:41:11;6.17;;;4.07;;
3771;SDS011;1901;48.172;12.824;2022-08-21T08:43:39;3.63;;;3.33;;
3771;SDS011;1901;48.172;12.824;2022-08-21T08:46:09;4.67;;;3.30;;
3771;SDS011;1901;48.172;12.824;2022-08-21T08:48:40;4.33;;;3.67;;
3771;SDS011;1901;48.172;12.824;2022-08-21T08:51:11;4.83;;;3.40;;
3771;SDS011;1901;48.172;12.824;2022-08-21T08:53:44;4.27;;;3.50;;
3771;SDS011;1901;48.172;12.824;2022-08-21T08:56:12;4.70;;;3.07;;
3771;SDS011;1901;48.172;12.824;2022-08-21T08:58:41;5.23;;;3.80;;
3771;SDS011;1901;48.172;12.824;2022-08-21T09:01:10;3.43;;;3.13;;
3771;SDS011;1901;48.172;12.824;2022-08-21T09:03:39;4.30;;;3.20;;
3771;SDS011;1901;48.172;12.824;2022-08-21T09:06:09;4.37;;;3.60;;
3771;SDS011;1901;48.172;12.824;2022-08-21T09:08:46;5.07;;;3.50;;
3771;SDS011;1901;48.172;12.824;2022-08-21T09:11:16;4.00;;;3.60;;
3771;SDS011;1901;48.172;12.824;2022-08-21T09:13:50;3.50;;;3.20;;
3771;SDS011;1901;48.172;12.824;2022-08-21T09:16:20;3.90;;;3.20;;
3771;SDS011;1901;48.172;12.824;2022-08-21T09:18:52;4.00;;;3.60;;
3771;SDS011;1901;48.172;12.824;2022-08-21T09:21:24;5.30;;;3.90;;
3771;SDS011;1901;48.172;12.824;2022-08-21T09:23:57;6.13;;;4.27;;
3771;SDS011;1901;48.172;12.824;2022-08-21T09:26:28;4.50;;;3.33;;
3771;SDS011;1901;48.172;12.824;2022-08-21T09:28:58;3.93;;;3.53;;
3771;SDS011;1901;48.172;12.824;2022-08-21T09:31:27;6.07;;;5.27;;
3771;SDS011;1901;48.172;12.824;2022-08-21T09:33:58;4.20;;;3.80;;
3771;SDS011;1901;48.172;12.824;2022-08-21T09:36:29;4.20;;;3.30;;
3771;SDS011;1901;48.172;12.824;2022-08-21T09:38:59;4.40;;;4.00;;
3771;SDS011;1901;48.172;12.824;2022-08-21T09:41:27;3.97;;;3.67;;
3771;SDS011;1901;48.172;12.824;2022-08-21T09:43:56;5.07;;;4.10;;
3771;SDS011;1901;48.172;12.824;2022-08-21T09:46:24;4.43;;;3.87;;
3771;SDS011;1901;48.172;12.824;2022-08-21T09:48:52;8.20;;;4.27;;
3771;SDS011;1901;48.172;12.824;2022-08-21T09:51:20;6.43;;;4.17;;
3771;SDS011;1901;48.172;12.824;2022-08-21T09:53:49;4.07;;;3.67;;
3771;SDS011;1901;48.172;12.824;2022-08-21T09:56:25;4.83;;;4.43;;
3771;SDS011;1901;48.172;12.824;2022-08-21T09:59:18;5.20;;;4.23;;
3771;SDS011;1901;48.172;12.824;2022-08-21T10:01:46;4.83;;;3.57;;
3771;SDS011;1901;48.172;12.824;2022-08-21T10:04:14;4.53;;;4.13;;
3771;SDS011;1901;48.172;12.824;2022-08-21T10:06:42;5.30;;;3.47;;
3771;SDS011;1901;48.172;12.824;2022-08-21T10:09:09;4.70;;;4.20;;
3771;SDS011;1901;48.172;12.824;2022-08-21T10:11:39;4.13;;;3.80;;
3771;SDS011;1901;48.172;12.824;2022-08-21T10:14:10;3.60;;;3.30;;
3771;SDS011;1901;48.172;12.824;2022-08-21T10:16:42;3.83;;;3.53;;
3771;SDS011;1901;48.172;12.824;2022-08-21T10:19:15;4.60;;;3.83;;
3771;SDS011;1901;48.172;12.824;2022-08-21T10:21:49;5.30;;;4.80;;
3771;SDS011;1901;48.172;12.824;2022-08-21T10:24:24;3.73;;;3.33;;
3771;SDS011;1901;48.172;12.824;2022-08-21T10:27:00;3.37;;;2.93;;
3771;SDS011;1901;48.172;12.824;2022-08-21T10:29:35;3.50;;;3.20;;
3771;SDS011;1901;48.172;12.824;2022-08-21T10:32:08;3.33;;;3.10;;
3771;SDS011;1901;48.172;12.824;2022-08-21T10:34:41;3.50;;;3.20;;
3771;SDS011;1901;48.172;12.824;2022-08-21T10:37:16;4.00;;;2.70;;
3771;SDS011;1901;48.172;12.824;2022-08-21T10:39:47;5.70;;;2.83;;
3771;SDS011;1901;48.172;12.824;2022-08-21T10:42:27;2.50;;;2.30;;
3771;SDS011;1901;48.172;12.824;2022-08-21T10:44:59;3.63;;;2.90;;
3771;SDS011;1901;48.172;12.824;2022-08-21T10:47:29;6.10;;;3.13;;
3771;SDS011;1901;48.172;12.824;2022-08-21T10:49:59;3.40;;;3.10;;
3771;SDS011;1901;48.172;12.824;2022-08-21T10:52:36;3.50;;;3.13;;
3771;SDS011;1901;48.172;12.824;2022-08-21T10:55:09;3.50;;;3.20;;
3771;SDS011;1901;48.172;12.824;2022-08-21T10:57:41;3.00;;;2.77;;
3771;SDS011;1901;48.172;12.824;2022-08-21T11:00:11;4.20;;;3.83;;
3771;SDS011;1901;48.172;12.824;2022-08-21T11:02:40;6.13;;;3.33;;
3771;SDS011;1901;48.172;12.824;2022-08-21T11:05:11;5.13;;;3.07;;
3771;SDS011;1901;48.172;12.824;2022-08-21T11:07:41;2.87;;;2.67;;
3771;SDS011;1901;48.172;12.824;2022-08-21T11:10:10;11.13;;;3.00;;
3771;SDS011;1901;48.172;12.824;2022-08-21T11:12:41;3.17;;;2.90;;
3771;SDS011;1901;48.172;12.824;2022-08-21T11:15:14;2.33;;;2.13;;
3771;SDS011;1901;48.172;12.824;2022-08-21T11:17:43;2.53;;;2.33;;
3771;SDS011;1901;48.172;12.824;2022-08-21T11:20:12;3.13;;;2.83;;
3771;SDS011;1901;48.172;12.824;2022-08-21T11:22:44;3.20;;;3.00;;
3771;SDS011;1901;48.172;12.824;2022-08-21T11:25:15;2.73;;;2.53;;
3771;SDS011;1901;48.172;12.824;2022-08-21T11:27:45;3.80;;;2.30;;
3771;SDS011;1901;48.172;12.824;2022-08-21T11:30:15;2.33;;;2.13;;
3771;SDS011;1901;48.172;12.824;2022-08-21T11:32:47;3.10;;;2.63;;
3771;SDS011;1901;48.172;12.824;2022-08-21T11:35:18;2.93;;;2.60;;
3771;SDS011;1901;48.172;12.824;2022-08-21T11:37:50;3.63;;;3.13;;
3771;SDS011;1901;48.172;12.824;2022-08-21T11:40:24;4.90;;;3.23;;
3771;SDS011;1901;48.172;12.824;2022-08-21T11:42:58;3.10;;;2.80;;
3771;SDS011;1901;48.172;12.824;2022-08-21T11:45:30;3.20;;;2.90;;
3771;SDS011;1901;48.172;12.824;2022-08-21T11:48:00;3.93;;;2.93;;
3771;SDS011;1901;48.172;12.824;2022-08-21T11:50:30;3.00;;;2.70;;
3771;SDS011;1901;48.172;12.824;2022-08-21T11:52:59;4.43;;;3.60;;
3771;SDS011;1901;48.172;12.824;2022-08-21T11:55:29;3.70;;;3.30;;
3771;SDS011;1901;48.172;12.824;2022-08-21T11:58:00;6.40;;;4.60;;
3771;SDS011;1901;48.172;12.824;2022-08-21T12:00:29;3.77;;;3.47;;
3771;SDS011;1901;48.172;12.824;2022-08-21T12:02:58;4.33;;;3.93;;
3771;SDS011;1901;48.172;12.824;2022-08-21T12:05:32;3.90;;;3.53;;
3771;SDS011;1901;48.172;12.824;2022-08-21T12:08:04;3.10;;;2.80;;
3771;SDS011;1901;48.172;12.824;2022-08-21T12:10:32;13.90;;;8.50;;
3771;SDS011;1901;48.172;12.824;2022-08-21T12:13:07;7.43;;;3.40;;
3771;SDS011;1901;48.172;12.824;2022-08-21T12:15:36;3.40;;;3.10;;
3771;SDS011;1901;48.172;12.824;2022-08-21T12:18:04;4.10;;;3.80;;
3771;SDS011;1901;48.172;12.824;2022-08-21T12:20:37;10.00;;;3.60;;
3771;SDS011;1901;48.172;12.824;2022-08-21T12:23:05;4.57;;;4.27;;
3771;SDS011;1901;48.172;12.824;2022-08-21T12:25:36;4.27;;;3.87;;
3771;SDS011;1901;48.172;12.824;2022-08-21T12:28:08;5.47;;;4.50;;
3771;SDS011;1901;48.172;12.824;2022-08-21T12:30:36;4.20;;;3.80;;
3771;SDS011;1901;48.172;12.824;2022-08-21T12:33:05;4.53;;;4.13;;
3771;SDS011;1901;48.172;12.824;2022-08-21T12:35:35;4.40;;;4.10;;
3771;SDS011;1901;48.172;12.824;2022-08-21T12:38:06;8.73;;;5.27;;
3771;SDS011;1901;48.172;12.824;2022-08-21T12:40:37;4.30;;;3.90;;
3771;SDS011;1901;48.172;12.824;2022-08-21T12:43:04;4.60;;;4.20;;
3771;SDS011;1901;48.172;12.824;2022-08-21T12:45:34;4.67;;;4.13;;
3771;SDS011;1901;48.172;12.824;2022-08-21T12:48:04;8.37;;;4.20;;
3771;SDS011;1901;48.172;12.824;2022-08-21T12:50:35;5.03;;;4.57;;
3771;SDS011;1901;48.172;12.824;2022-08-21T12:53:04;5.23;;;4.73;;
3771;SDS011;1901;48.172;12.824;2022-08-21T12:55:33;5.73;;;4.00;;
3771;SDS011;1901;48.172;12.824;2022-08-21T12:58:00;5.37;;;4.47;;
3771;SDS011;1901;48.172;12.824;2022-08-21T13:00:28;5.17;;;4.67;;
3771;SDS011;1901;48.172;12.824;2022-08-21T13:02:57;6.17;;;4.43;;
3771;SDS011;1901;48.172;12.824;2022-08-21T13:05:27;4.60;;;4.20;;
3771;SDS011;1901;48.172;12.824;2022-08-21T13:07:55;7.13;;;4.40;;
3771;SDS011;1901;48.172;12.824;2022-08-21T13:10:23;4.70;;;4.30;;
3771;SDS011;1901;48.172;12.824;2022-08-21T13:12:53;4.50;;;4.10;;
3771;SDS011;1901;48.172;12.824;2022-08-21T13:15:22;4.63;;;4.23;;
3771;SDS011;1901;48.172;12.824;2022-08-21T13:17:51;6.70;;;3.80;;
3771;SDS011;1901;48.172;12.824;2022-08-21T13:20:22;4.90;;;4.50;;
3771;SDS011;1901;48.172;12.824;2022-08-21T13:22:50;5.43;;;4.93;;
3771;SDS011;1901;48.172;12.824;2022-08-21T13:25:18;4.03;;;3.73;;
3771;SDS011;1901;48.172;12.824;2022-08-21T13:27:56;3.83;;;3.53;;
3771;SDS011;1901;48.172;12.824;2022-08-21T13:30:24;3.63;;;3.33;;
3771;SDS011;1901;48.172;12.824;2022-08-21T13:32:52;3.33;;;3.03;;
3771;SDS011;1901;48.172;12.824;2022-08-21T13:35:23;4.13;;;3.73;;
3771;SDS011;1901;48.172;12.824;2022-08-21T13:37:51;4.00;;;3.60;;
3771;SDS011;1901;48.172;12.824;2022-08-21T13:40:20;3.73;;;3.43;;
3771;SDS011;1901;48.172;12.824;2022-08-21T13:42:50;4.27;;;3.67;;
3771;SDS011;1901;48.172;12.824;2022-08-21T13:45:21;6.60;;;3.97;;
3771;SDS011;1901;48.172;12.824;2022-08-21T13:47:49;4.13;;;3.30;;
3771;SDS011;1901;48.172;12.824;2022-08-21T13:50:18;4.00;;;3.70;;
3771;SDS011;1901;48.172;12.824;2022-08-21T13:52:53;4.97;;;4.47;;
3771;SDS011;1901;48.172;12.824;2022-08-21T13:55:24;4.30;;;4.00;;
3771;SDS011;1901;48.172;12.824;2022-08-21T13:58:02;5.87;;;4.90;;
3771;SDS011;1901;48.172;12.824;2022-08-21T14:00:30;4.50;;;4.00;;
3771;SDS011;1901;48.172;12.824;2022-08-21T14:03:01;4.80;;;3.90;;
3771;SDS011;1901;48.172;12.824;2022-08-21T14:05:29;5.13;;;4.63;;
3771;SDS011;1901;48.172;12.824;2022-08-21T14:08:00;4.50;;;4.10;;
3771;SDS011;1901;48.172;12.824;2022-08-21T14:10:28;5.13;;;4.63;;
3771;SDS011;1901;48.172;12.824;2022-08-21T14:12:56;4.47;;;4.07;;
3771;SDS011;1901;48.172;12.824;2022-08-21T14:15:26;5.10;;;4.60;;
3771;SDS011;1901;48.172;12.824;2022-08-21T14:17:54;4.03;;;3.60;;
3771;SDS011;1901;48.172;12.824;2022-08-21T14:20:26;4.40;;;4.00;;
3771;SDS011;1901;48.172;12.824;2022-08-21T14:22:53;5.90;;;4.40;;
3771;SDS011;1901;48.172;12.824;2022-08-21T14:25:29;4.37;;;3.97;;
3771;SDS011;1901;48.172;12.824;2022-08-21T14:27:58;3.93;;;3.60;;
3771;SDS011;1901;48.172;12.824;2022-08-21T14:30:29;3.87;;;3.50;;
3771;SDS011;1901;48.172;12.824;2022-08-21T14:32:58;5.30;;;4.73;;
3771;SDS011;1901;48.172;12.824;2022-08-21T14:35:25;4.30;;;4.00;;
3771;SDS011;1901;48.172;12.824;2022-08-21T14:37:53;4.90;;;4.37;;
3771;SDS011;1901;48.172;12.824;2022-08-21T14:40:22;4.70;;;4.00;;
3771;SDS011;1901;48.172;12.824;2022-08-21T14:42:51;6.77;;;4.20;;
3771;SDS011;1901;48.172;12.824;2022-08-21T14:45:19;5.23;;;4.20;;
3771;SDS011;1901;48.172;12.824;2022-08-21T14:47:47;5.30;;;4.50;;
3771;SDS011;1901;48.172;12.824;2022-08-21T14:50:14;5.23;;;4.47;;
3771;SDS011;1901;48.172;12.824;2022-08-21T14:52:41;4.47;;;4.17;;
3771;SDS011;1901;48.172;12.824;2022-08-21T14:55:11;4.47;;;4.07;;
3771;SDS011;1901;48.172;12.824;2022-08-21T14:57:39;5.43;;;4.00;;
3771;SDS011;1901;48.172;12.824;2022-08-21T15:00:11;5.23;;;4.67;;
3771;SDS011;1901;48.172;12.824;2022-08-21T15:02:38;4.80;;;4.30;;
3771;SDS011;1901;48.172;12.824;2022-08-21T15:05:06;4.00;;;3.70;;
3771;SDS011;1901;48.172;12.824;2022-08-21T15:07:33;5.33;;;4.23;;
3771;SDS011;1901;48.172;12.824;2022-08-21T15:10:00;4.50;;;4.13;;